createdAt,value
2018-04-06T00:00:06.677Z,0.00
2018-04-06T00:01:27.756Z,0.00
2018-04-06T00:02:28.823Z,0.00
2018-04-06T00:03:09.322Z,0.00
2018-04-06T00:04:31.321Z,0.00
2018-04-06T00:05:10.279Z,0.00
2018-04-06T00:06:22.311Z,0.00
2018-04-06T00:07:08.852Z,0.00
2018-04-06T00:08:08.192Z,0.00
2018-04-06T00:09:11.350Z,0.00
2018-04-06T00:10:09.315Z,0.00
2018-04-06T00:11:23.320Z,0.00
2018-04-06T00:12:10.201Z,0.00
2018-04-06T00:13:16.806Z,0.00
2018-04-06T00:14:10.929Z,0.00
2018-04-06T00:15:34.269Z,0.00
2018-04-06T00:16:09.584Z,0.00
2018-04-06T00:17:12.488Z,0.00
2018-04-06T00:18:14.813Z,0.00
2018-04-06T00:19:16.815Z,0.00
2018-04-06T00:20:11.686Z,0.00
2018-04-06T00:21:12.313Z,0.00
2018-04-06T00:22:10.371Z,0.00
2018-04-06T00:23:12.763Z,0.00
2018-04-06T00:24:16.818Z,0.00
2018-04-06T00:25:11.810Z,0.00
2018-04-06T00:26:15.757Z,0.00
2018-04-06T00:27:11.819Z,0.00
2018-04-06T00:28:12.765Z,0.00
2018-04-06T00:29:12.160Z,0.00
2018-04-06T00:30:39.981Z,0.00
2018-04-06T00:31:15.755Z,0.00
2018-04-06T00:32:11.462Z,0.00
2018-04-06T00:33:13.385Z,0.00
2018-04-06T00:34:13.350Z,0.00
2018-04-06T00:35:14.041Z,0.00
2018-04-06T00:36:16.263Z,0.00
2018-04-06T00:37:15.264Z,0.00
2018-04-06T00:38:14.815Z,0.00
2018-04-06T00:39:14.278Z,0.00
2018-04-06T00:40:14.178Z,0.00
2018-04-06T00:41:13.674Z,0.00
2018-04-06T00:42:14.860Z,0.00
2018-04-06T00:43:14.821Z,0.00
2018-04-06T00:44:17.310Z,0.00
2018-04-06T00:45:13.551Z,0.00
2018-04-06T00:46:30.148Z,0.00
2018-04-06T00:47:15.817Z,0.00
2018-04-06T00:48:17.829Z,0.00
2018-04-06T00:49:35.264Z,0.00
2018-04-06T00:50:17.302Z,0.00
2018-04-06T00:51:14.628Z,0.00
2018-04-06T00:52:18.770Z,0.00
2018-04-06T00:53:18.022Z,0.00
2018-04-06T00:54:17.141Z,0.00
2018-04-06T00:55:18.819Z,0.00
2018-04-06T00:56:17.768Z,0.00
2018-04-06T00:57:19.515Z,0.00
2018-04-06T00:58:17.273Z,0.00
2018-04-06T00:59:17.768Z,0.00
2018-04-06T01:00:33.054Z,0.00
2018-04-06T01:01:17.248Z,0.00
2018-04-06T01:02:17.270Z,0.00
2018-04-06T01:03:20.313Z,0.00
2018-04-06T01:04:17.780Z,0.00
2018-04-06T01:05:19.473Z,0.00
2018-04-06T01:06:17.183Z,0.00
2018-04-06T01:07:20.827Z,0.00
2018-04-06T01:08:24.505Z,0.00
2018-04-06T01:09:24.335Z,0.00
2018-04-06T01:10:21.310Z,0.00
2018-04-06T01:11:35.312Z,0.00
2018-04-06T01:13:54.207Z,0.00
2018-04-06T01:14:54.725Z,0.00
2018-04-06T01:15:52.735Z,0.00
2018-04-06T01:16:51.075Z,0.00
2018-04-06T01:17:56.192Z,0.00
2018-04-06T01:18:51.451Z,0.00
2018-04-06T01:19:53.177Z,0.00
2018-04-06T01:20:52.680Z,0.00
2018-04-06T01:21:55.684Z,0.00
2018-04-06T01:23:13.019Z,0.00
2018-04-06T01:23:53.197Z,0.00
2018-04-06T01:24:53.405Z,0.00
2018-04-06T01:25:55.187Z,0.00
2018-04-06T01:26:54.720Z,0.00
2018-04-06T01:28:00.721Z,0.00
2018-04-06T01:28:55.362Z,0.00
2018-04-06T01:29:56.183Z,0.00
2018-04-06T01:31:17.680Z,0.00
2018-04-06T01:31:55.383Z,0.00
2018-04-06T01:32:55.728Z,0.00
2018-04-06T01:34:19.174Z,0.00
2018-04-06T01:34:55.112Z,0.00
2018-04-06T01:35:54.323Z,0.00
2018-04-06T01:36:56.603Z,0.00
2018-04-06T01:37:55.744Z,0.00
2018-04-06T01:39:11.731Z,0.00
2018-04-06T01:39:56.166Z,0.00
2018-04-06T01:40:56.174Z,0.00
2018-04-06T01:42:03.219Z,0.00
2018-04-06T01:43:02.232Z,0.00
2018-04-06T01:43:56.898Z,0.00
2018-04-06T01:44:59.729Z,0.00
2018-04-06T01:45:57.685Z,0.00
2018-04-06T01:46:56.190Z,0.00
2018-04-06T01:47:57.698Z,0.00
2018-04-06T01:48:58.249Z,0.00
2018-04-06T01:50:00.233Z,0.00
2018-04-06T01:51:04.730Z,0.00
2018-04-06T01:51:57.052Z,0.00
2018-04-06T01:53:00.237Z,0.00
2018-04-06T01:54:05.240Z,0.00
2018-04-06T01:54:59.239Z,0.00
2018-04-06T01:56:00.182Z,0.00
2018-04-06T01:57:02.727Z,0.00
2018-04-06T01:58:20.680Z,0.00
2018-04-06T01:59:06.236Z,0.00
2018-04-06T02:00:00.262Z,0.00
2018-04-06T02:01:02.239Z,0.00
2018-04-06T02:02:04.739Z,0.00
2018-04-06T02:02:59.181Z,0.00
2018-04-06T02:04:00.722Z,0.00
2018-04-06T02:05:15.222Z,0.00
2018-04-06T02:06:06.212Z,0.00
2018-04-06T02:07:01.074Z,0.00
2018-04-06T02:08:02.220Z,0.00
2018-04-06T02:09:01.737Z,0.00
2018-04-06T02:10:02.715Z,0.00
2018-04-06T02:11:00.168Z,0.00
2018-04-06T02:12:24.252Z,0.00
2018-04-06T02:13:25.218Z,0.00
2018-04-06T02:15:59.891Z,0.00
2018-04-06T02:16:36.921Z,0.00
2018-04-06T02:17:37.360Z,0.00
2018-04-06T02:18:42.083Z,0.00
2018-04-06T02:19:36.358Z,0.00
2018-04-06T02:20:37.909Z,0.00
2018-04-06T02:21:34.102Z,0.00
2018-04-06T02:22:35.322Z,0.00
2018-04-06T02:23:34.522Z,0.00
2018-04-06T02:24:37.117Z,0.00
2018-04-06T02:25:35.962Z,0.00
2018-04-06T02:27:00.856Z,0.00
2018-04-06T02:27:36.216Z,0.00
2018-04-06T02:28:35.297Z,0.00
2018-04-06T02:29:37.421Z,0.00
2018-04-06T02:30:35.638Z,0.00
2018-04-06T02:31:37.401Z,0.00
2018-04-06T02:32:38.288Z,0.00
2018-04-06T02:33:38.089Z,0.00
2018-04-06T02:34:37.328Z,0.00
2018-04-06T02:35:51.947Z,0.00
2018-04-06T02:36:59.422Z,0.00
2018-04-06T02:37:36.733Z,0.00
2018-04-06T02:38:37.985Z,0.00
2018-04-06T02:39:38.540Z,0.00
2018-04-06T02:40:39.874Z,0.00
2018-04-06T02:41:38.937Z,0.00
2018-04-06T02:42:41.403Z,0.00
2018-04-06T02:43:41.796Z,0.00
2018-04-06T02:44:49.735Z,0.00
2018-04-06T02:45:53.905Z,0.00
2018-04-06T02:46:40.328Z,0.00
2018-04-06T02:47:40.439Z,0.00
2018-04-06T02:48:41.059Z,0.00
2018-04-06T02:49:40.419Z,0.00
2018-04-06T02:50:39.004Z,0.00
2018-04-06T02:51:41.406Z,0.00
2018-04-06T02:52:42.904Z,0.00
2018-04-06T02:53:43.386Z,0.00
2018-04-06T02:55:03.411Z,0.00
2018-04-06T02:55:44.467Z,0.00
2018-04-06T02:56:42.388Z,0.00
2018-04-06T02:57:40.862Z,0.00
2018-04-06T02:58:41.363Z,0.00
2018-04-06T02:59:56.451Z,0.00
2018-04-06T03:00:41.863Z,0.00
2018-04-06T03:01:44.219Z,0.00
2018-04-06T03:02:45.915Z,0.00
2018-04-06T03:03:41.256Z,0.00
2018-04-06T03:04:41.552Z,0.00
2018-04-06T03:05:43.403Z,0.00
2018-04-06T03:06:41.844Z,0.00
2018-04-06T03:07:47.913Z,0.00
2018-04-06T03:08:44.269Z,0.00
2018-04-06T03:09:46.423Z,0.00
2018-04-06T03:11:07.365Z,0.00
2018-04-06T03:11:44.401Z,0.00
2018-04-06T03:12:42.727Z,0.00
2018-04-06T03:13:44.965Z,0.00
2018-04-06T03:14:49.130Z,0.00
2018-04-06T03:15:50.664Z,0.00
2018-04-06T03:16:43.707Z,0.00
2018-04-06T03:17:46.872Z,0.00
2018-04-06T03:18:46.434Z,0.00
2018-04-06T03:19:59.395Z,0.00
2018-04-06T03:21:06.922Z,0.00
2018-04-06T03:21:47.399Z,0.00
2018-04-06T03:22:44.503Z,0.00
2018-04-06T03:23:46.419Z,0.00
2018-04-06T03:24:46.400Z,0.00
2018-04-06T03:25:46.912Z,0.00
2018-04-06T03:26:46.130Z,0.00
2018-04-06T03:27:47.915Z,0.00
2018-04-06T03:28:53.402Z,0.00
2018-04-06T03:30:02.865Z,0.00
2018-04-06T03:30:49.437Z,0.00
2018-04-06T03:31:47.928Z,0.00
2018-04-06T03:32:47.170Z,0.00
2018-04-06T03:33:47.922Z,0.00
2018-04-06T03:34:47.516Z,0.00
2018-04-06T03:35:48.408Z,0.00
2018-04-06T03:36:47.360Z,0.00
2018-04-06T03:38:02.417Z,0.00
2018-04-06T03:38:50.854Z,0.00
2018-04-06T03:39:51.899Z,0.00
2018-04-06T03:40:47.375Z,0.00
2018-04-06T03:41:49.714Z,0.00
2018-04-06T03:43:13.356Z,0.00
2018-04-06T03:43:50.359Z,0.00
2018-04-06T03:44:49.349Z,0.00
2018-04-06T03:45:49.925Z,0.00
2018-04-06T03:47:01.375Z,0.00
2018-04-06T03:47:48.628Z,0.00
2018-04-06T03:48:50.858Z,0.00
2018-04-06T03:50:04.416Z,0.00
2018-04-06T03:50:51.618Z,0.00
2018-04-06T03:51:49.200Z,0.00
2018-04-06T03:52:51.886Z,0.00
2018-04-06T03:53:49.479Z,0.00
2018-04-06T03:55:07.359Z,0.00
2018-04-06T03:55:49.813Z,0.00
2018-04-06T03:56:50.431Z,0.00
2018-04-06T03:57:57.964Z,0.00
2018-04-06T03:58:52.902Z,0.00
2018-04-06T03:59:51.534Z,0.00
2018-04-06T04:00:53.367Z,0.00
2018-04-06T04:01:50.976Z,0.00
2018-04-06T04:02:52.110Z,0.00
2018-04-06T04:03:53.913Z,0.00
2018-04-06T04:04:54.902Z,0.00
2018-04-06T04:06:06.920Z,0.00
2018-04-06T04:06:51.532Z,0.00
2018-04-06T04:07:54.354Z,0.00
2018-04-06T04:08:53.405Z,0.00
2018-04-06T04:09:52.859Z,0.00
2018-04-06T04:10:53.954Z,0.00
2018-04-06T04:11:52.454Z,0.00
2018-04-06T04:12:55.391Z,4.00
2018-04-06T04:13:55.403Z,0.00
2018-04-06T04:14:54.444Z,0.00
2018-04-06T04:15:53.004Z,4.00
2018-04-06T04:16:59.354Z,4.00
2018-04-06T04:18:01.408Z,4.00
2018-04-06T04:18:53.617Z,4.00
2018-04-06T04:19:54.827Z,8.00
2018-04-06T04:20:55.355Z,8.00
2018-04-06T04:21:57.361Z,8.00
2018-04-06T04:22:59.952Z,12.00
2018-04-06T04:23:55.480Z,12.00
2018-04-06T04:24:54.546Z,16.00
2018-04-06T04:26:06.404Z,16.00
2018-04-06T04:26:56.859Z,20.00
2018-04-06T04:27:57.932Z,20.00
2018-04-06T04:28:56.360Z,24.00
2018-04-06T04:29:57.360Z,28.00
2018-04-06T04:30:57.448Z,36.00
2018-04-06T04:31:57.430Z,44.00
2018-04-06T04:33:11.909Z,52.00
2018-04-06T04:33:56.225Z,60.00
2018-04-06T04:34:59.858Z,68.00
2018-04-06T04:36:01.377Z,80.00
2018-04-06T04:36:58.411Z,96.00
2018-04-06T04:37:59.382Z,108.00
2018-04-06T04:38:58.929Z,120.00
2018-04-06T04:40:19.941Z,140.00
2018-04-06T04:40:58.476Z,156.00
2018-04-06T04:41:58.682Z,176.00
2018-04-06T04:43:00.267Z,200.00
2018-04-06T04:43:58.225Z,220.00
2018-04-06T04:45:06.879Z,244.00
2018-04-06T04:46:00.912Z,272.00
2018-04-06T04:47:00.405Z,300.00
2018-04-06T04:48:02.408Z,332.00
2018-04-06T04:49:00.406Z,368.00
2018-04-06T04:50:03.880Z,404.00
2018-04-06T04:51:00.353Z,436.00
2018-04-06T04:52:04.137Z,476.00
2018-04-06T04:53:02.899Z,512.00
2018-04-06T04:54:08.866Z,556.00
2018-04-06T04:55:00.700Z,604.00
2018-04-06T04:56:16.432Z,652.00
2018-04-06T04:57:02.388Z,700.00
2018-04-06T04:58:01.889Z,752.00
2018-04-06T04:59:00.354Z,804.00
2018-04-06T05:00:03.420Z,860.00
2018-04-06T05:01:04.353Z,916.00
2018-04-06T05:02:04.924Z,972.00
2018-04-06T05:03:04.926Z,1028.00
2018-04-06T05:04:01.265Z,1088.00
2018-04-06T05:05:01.460Z,1156.00
2018-04-06T05:06:03.359Z,1228.00
2018-04-06T05:07:01.826Z,1284.00
2018-04-06T05:08:03.852Z,1336.00
2018-04-06T05:09:05.897Z,1388.00
2018-04-06T05:10:03.853Z,1448.00
2018-04-06T05:11:02.572Z,1516.00
2018-04-06T05:12:26.371Z,1592.00
2018-04-06T05:13:32.010Z,1668.00
2018-04-06T05:14:03.850Z,1736.00
2018-04-06T05:15:04.961Z,1792.00
2018-04-06T05:16:05.452Z,1832.00
2018-04-06T05:17:05.400Z,1876.00
2018-04-06T05:18:06.352Z,1912.00
2018-04-06T05:19:06.879Z,1980.00
2018-04-06T05:20:05.902Z,2092.00
2018-04-06T05:21:05.953Z,2232.00
2018-04-06T05:22:06.406Z,2380.00
2018-04-06T05:23:06.404Z,2480.00
2018-04-06T05:24:07.416Z,2488.00
2018-04-06T05:25:08.973Z,2440.00
2018-04-06T05:26:07.881Z,2404.00
2018-04-06T05:27:05.345Z,2496.00
2018-04-06T05:28:06.558Z,2856.00
2018-04-06T05:29:06.773Z,3012.00
2018-04-06T05:30:13.908Z,3068.00
2018-04-06T05:31:11.385Z,3148.00
2018-04-06T05:32:08.936Z,3220.00
2018-04-06T05:33:07.397Z,3240.00
2018-04-06T05:34:08.400Z,3300.00
2018-04-06T05:35:07.387Z,3384.00
2018-04-06T05:36:06.876Z,3396.00
2018-04-06T05:37:08.112Z,3540.00
2018-04-06T05:38:07.609Z,3744.00
2018-04-06T05:39:07.421Z,3764.00
2018-04-06T05:40:08.396Z,3608.00
2018-04-06T05:41:07.625Z,3740.00
2018-04-06T05:42:10.351Z,3936.00
2018-04-06T05:43:23.933Z,3956.00
2018-04-06T05:44:09.141Z,3908.00
2018-04-06T05:45:09.910Z,4208.00
2018-04-06T05:46:24.455Z,5084.00
2018-04-06T05:47:10.464Z,6656.00
2018-04-06T05:48:08.799Z,6440.00
2018-04-06T05:49:12.407Z,6804.00
2018-04-06T05:50:09.126Z,7680.00
2018-04-06T05:51:12.896Z,7164.00
2018-04-06T05:52:09.851Z,7852.00
2018-04-06T05:53:13.857Z,9828.00
2018-04-06T05:54:11.413Z,10780.00
2018-04-06T05:55:09.830Z,13408.00
2018-04-06T05:56:10.641Z,12432.00
2018-04-06T05:57:11.221Z,12364.00
2018-04-06T05:58:14.462Z,15616.00
2018-04-06T05:59:12.421Z,14720.00
2018-04-06T06:00:14.402Z,15936.00
2018-04-06T06:01:13.393Z,15456.00
2018-04-06T06:02:14.956Z,14592.00
2018-04-06T06:03:18.916Z,16000.00
2018-04-06T06:04:37.394Z,15200.00
2018-04-06T06:05:15.398Z,21248.00
2018-04-06T06:06:32.721Z,23168.00
2018-04-06T06:07:11.902Z,22752.00
2018-04-06T06:08:18.923Z,19072.00
2018-04-06T06:09:13.918Z,17856.00
2018-04-06T06:10:13.905Z,21216.00
2018-04-06T06:11:12.497Z,22272.00
2018-04-06T06:12:12.712Z,24832.00
2018-04-06T06:13:15.582Z,26272.00
2018-04-06T06:14:13.076Z,26528.00
2018-04-06T06:15:14.898Z,24736.00
2018-04-06T06:16:13.349Z,25120.00
2018-04-06T06:17:15.407Z,25824.00
2018-04-06T06:18:15.406Z,27136.00
2018-04-06T06:19:13.855Z,22176.00
2018-04-06T06:20:14.057Z,16832.00
2018-04-06T06:21:14.272Z,16768.00
2018-04-06T06:22:14.486Z,18496.00
2018-04-06T06:23:16.457Z,18848.00
2018-04-06T06:24:14.866Z,22656.00
2018-04-06T06:25:16.904Z,28384.00
2018-04-06T06:26:15.228Z,28160.00
2018-04-06T06:27:17.408Z,27776.00
2018-04-06T06:28:15.615Z,31168.00
2018-04-06T06:29:15.846Z,26400.00
2018-04-06T06:30:17.032Z,30912.00
2018-04-06T06:31:19.899Z,32288.00
2018-04-06T06:32:16.475Z,32800.00
2018-04-06T06:33:16.699Z,33632.00
2018-04-06T06:34:16.907Z,32384.00
2018-04-06T06:35:17.112Z,33152.00
2018-04-06T06:36:17.339Z,34656.00
2018-04-06T06:37:17.534Z,29856.00
2018-04-06T06:38:17.746Z,32704.00
2018-04-06T06:39:17.965Z,35552.00
2018-04-06T06:40:18.174Z,35136.00
2018-04-06T06:41:18.451Z,35840.00
2018-04-06T06:42:18.603Z,37376.00
2018-04-06T06:43:18.812Z,39104.00
2018-04-06T06:44:19.029Z,39616.00
2018-04-06T06:45:19.233Z,38880.00
2018-04-06T06:46:19.452Z,38112.00
2018-04-06T06:47:19.656Z,38624.00
2018-04-06T06:48:19.860Z,39840.00
2018-04-06T06:49:21.897Z,42240.00
2018-04-06T06:50:20.240Z,43680.00
2018-04-06T06:51:20.449Z,44000.00
2018-04-06T06:52:22.416Z,44000.00
2018-04-06T06:53:20.856Z,44768.00
2018-04-06T06:54:21.112Z,46304.00
2018-04-06T06:55:21.286Z,47008.00
2018-04-06T06:56:21.499Z,45952.00
2018-04-06T06:57:23.414Z,45888.00
2018-04-06T06:58:21.874Z,45184.00
2018-04-06T06:59:22.094Z,41280.00
2018-04-06T07:00:22.309Z,36704.00
2018-04-06T07:01:22.527Z,49632.00
2018-04-06T07:02:22.740Z,51584.00
2018-04-06T07:03:22.964Z,51648.00
2018-04-06T07:04:23.173Z,50848.00
2018-04-06T07:05:23.381Z,50144.00
2018-04-06T07:06:23.603Z,50112.00
2018-04-06T07:07:23.808Z,47712.00
2018-04-06T07:08:25.910Z,49120.00
2018-04-06T07:09:24.255Z,50496.00
2018-04-06T07:10:24.518Z,52032.00
2018-04-06T07:11:26.405Z,52096.00
2018-04-06T07:12:24.862Z,53216.00
2018-04-06T07:13:25.087Z,54208.00
2018-04-06T07:14:27.979Z,55200.00
2018-04-06T07:15:25.441Z,56288.00
2018-04-06T07:16:25.661Z,57120.00
2018-04-06T07:17:25.915Z,57728.00
2018-04-06T07:18:26.122Z,59680.00
2018-04-06T07:19:26.358Z,60832.00
2018-04-06T07:20:26.595Z,60800.00
2018-04-06T07:21:29.422Z,60896.00
2018-04-06T07:22:27.089Z,61248.00
2018-04-06T07:23:34.908Z,59840.00
2018-04-06T07:24:28.912Z,59104.00
2018-04-06T07:25:27.522Z,59008.00
2018-04-06T07:26:29.409Z,59200.00
2018-04-06T07:27:29.407Z,59520.00
2018-04-06T07:28:29.960Z,61248.00
2018-04-06T07:29:29.904Z,61152.00
2018-04-06T07:30:29.906Z,56672.00
2018-04-06T07:31:29.502Z,53984.00
2018-04-06T07:32:31.487Z,61248.00
2018-04-06T07:33:29.944Z,62464.00
2018-04-06T07:34:29.146Z,62880.00
2018-04-06T07:35:30.381Z,63712.00
2018-04-06T07:36:31.425Z,64576.00
2018-04-06T07:37:29.628Z,65120.00
2018-04-06T07:38:30.427Z,65088.00
2018-04-06T07:39:31.908Z,67200.00
2018-04-06T07:40:31.941Z,69888.00
2018-04-06T07:41:31.919Z,70816.00
2018-04-06T07:42:30.551Z,70560.00
2018-04-06T07:43:30.787Z,68928.00
2018-04-06T07:44:32.911Z,67552.00
2018-04-06T07:45:38.912Z,64384.00
2018-04-06T07:46:32.916Z,61632.00
2018-04-06T07:47:47.422Z,61536.00
2018-04-06T07:48:33.410Z,61664.00
2018-04-06T07:49:33.450Z,62304.00
2018-04-06T07:50:34.981Z,61600.00
2018-04-06T07:51:34.367Z,60768.00
2018-04-06T07:52:35.913Z,62080.00
2018-04-06T07:53:34.409Z,64032.00
2018-04-06T07:54:33.627Z,63936.00
2018-04-06T07:55:33.862Z,62560.00
2018-04-06T07:56:34.919Z,60160.00
2018-04-06T07:57:35.328Z,58784.00
2018-04-06T07:58:33.422Z,60384.00
2018-04-06T07:59:35.443Z,63744.00
2018-04-06T08:00:33.801Z,67584.00
2018-04-06T08:01:35.069Z,69344.00
2018-04-06T08:02:41.906Z,67552.00
2018-04-06T08:03:34.416Z,62656.00
2018-04-06T08:04:36.443Z,58688.00
2018-04-06T08:05:34.664Z,55840.00
2018-04-06T08:06:50.426Z,57376.00
2018-04-06T08:07:36.959Z,61024.00
2018-04-06T08:08:41.936Z,66144.00
2018-04-06T08:09:35.375Z,68000.00
2018-04-06T08:10:37.457Z,68288.00
2018-04-06T08:11:35.827Z,68768.00
2018-04-06T08:12:36.084Z,69600.00
2018-04-06T08:13:37.278Z,70240.00
2018-04-06T08:14:36.520Z,71808.00
2018-04-06T08:15:36.735Z,70816.00
2018-04-06T08:16:38.936Z,68864.00
2018-04-06T08:17:37.195Z,67968.00
2018-04-06T08:18:38.909Z,67040.00
2018-04-06T08:19:37.600Z,66432.00
2018-04-06T08:20:40.369Z,67552.00
2018-04-06T08:21:45.410Z,70144.00
2018-04-06T08:22:38.029Z,73152.00
2018-04-06T08:23:39.219Z,73952.00
2018-04-06T08:24:39.417Z,72832.00
2018-04-06T08:26:00.560Z,68672.00
2018-04-06T08:26:39.404Z,63360.00
2018-04-06T08:27:40.866Z,62304.00
2018-04-06T08:28:42.915Z,62624.00
2018-04-06T08:29:39.256Z,65440.00
2018-04-06T08:30:39.537Z,71040.00
2018-04-06T08:31:40.666Z,74528.00
2018-04-06T08:32:41.436Z,76192.00
2018-04-06T08:33:41.915Z,74752.00
2018-04-06T08:34:40.256Z,71040.00
2018-04-06T08:35:40.481Z,67200.00
2018-04-06T08:38:27.336Z,68992.00
2018-04-06T08:39:19.851Z,72224.00
2018-04-06T08:40:14.270Z,76672.00
2018-04-06T08:41:13.459Z,80128.00
2018-04-06T08:42:13.717Z,79424.00
2018-04-06T08:43:35.854Z,76576.00
2018-04-06T08:44:14.055Z,74880.00
2018-04-06T08:45:15.908Z,73280.00
2018-04-06T08:46:17.306Z,72736.00
2018-04-06T08:47:30.353Z,73984.00
2018-04-06T08:48:18.378Z,76672.00
2018-04-06T08:49:20.862Z,79008.00
2018-04-06T08:50:15.216Z,79360.00
2018-04-06T08:51:19.351Z,79104.00
2018-04-06T08:52:18.327Z,79584.00
2018-04-06T08:53:17.347Z,77760.00
2018-04-06T08:54:17.882Z,76864.00
2018-04-06T08:55:17.144Z,74496.00
2018-04-06T08:56:16.251Z,71328.00
2018-04-06T08:57:18.354Z,67104.00
2018-04-06T08:58:16.708Z,67360.00
2018-04-06T08:59:20.849Z,72224.00
2018-04-06T09:00:24.825Z,78080.00
2018-04-06T09:01:17.291Z,84896.00
2018-04-06T09:02:33.347Z,85184.00
2018-04-06T09:03:17.729Z,82880.00
2018-04-06T09:04:20.475Z,77792.00
2018-04-06T09:05:19.603Z,74176.00
2018-04-06T09:06:21.357Z,72576.00
2018-04-06T09:07:23.310Z,74912.00
2018-04-06T09:08:20.354Z,77824.00
2018-04-06T09:09:18.958Z,79648.00
2018-04-06T09:10:20.885Z,78272.00
2018-04-06T09:11:19.334Z,76000.00
2018-04-06T09:12:23.357Z,73920.00
2018-04-06T09:13:23.711Z,72448.00
2018-04-06T09:14:19.938Z,71456.00
2018-04-06T09:15:21.873Z,73536.00
2018-04-06T09:16:21.852Z,76128.00
2018-04-06T09:17:22.392Z,78368.00
2018-04-06T09:18:21.683Z,79552.00
2018-04-06T09:19:21.310Z,81664.00
2018-04-06T09:20:24.852Z,83328.00
2018-04-06T09:21:22.856Z,85216.00
2018-04-06T09:22:22.907Z,86656.00
2018-04-06T09:23:22.385Z,87488.00
2018-04-06T09:24:23.395Z,86944.00
2018-04-06T09:25:24.344Z,85312.00
2018-04-06T09:26:22.928Z,83456.00
2018-04-06T09:27:24.941Z,83744.00
2018-04-06T09:28:23.901Z,86688.00
2018-04-06T09:29:23.528Z,91776.00
2018-04-06T09:30:27.103Z,96704.00
2018-04-06T09:31:24.398Z,96992.00
2018-04-06T09:32:22.994Z,96256.00
2018-04-06T09:33:23.299Z,94880.00
2018-04-06T09:34:25.411Z,91840.00
2018-04-06T09:35:25.375Z,91136.00
2018-04-06T09:36:23.893Z,92288.00
2018-04-06T09:37:24.017Z,94656.00
2018-04-06T09:38:27.854Z,94464.00
2018-04-06T09:39:29.320Z,93024.00
2018-04-06T09:40:28.358Z,90944.00
2018-04-06T09:41:26.352Z,87520.00
2018-04-06T09:42:27.082Z,83616.00
2018-04-06T09:43:27.941Z,82272.00
2018-04-06T09:44:32.368Z,82400.00
2018-04-06T09:45:27.390Z,84672.00
2018-04-06T09:46:28.856Z,87776.00
2018-04-06T09:47:28.857Z,89664.00
2018-04-06T09:48:27.867Z,89216.00
2018-04-06T09:49:28.363Z,86784.00
2018-04-06T09:50:30.412Z,86368.00
2018-04-06T09:51:28.358Z,85792.00
2018-04-06T09:52:30.854Z,87456.00
2018-04-06T09:53:28.859Z,91072.00
2018-04-06T09:54:30.859Z,90912.00
2018-04-06T09:55:30.376Z,87904.00
2018-04-06T09:56:32.335Z,84320.00
2018-04-06T09:57:29.882Z,82848.00
2018-04-06T09:58:28.142Z,80768.00
2018-04-06T09:59:32.423Z,80000.00
2018-04-06T10:00:30.411Z,74880.00
2018-04-06T10:01:32.375Z,71488.00
2018-04-06T10:02:28.725Z,71744.00
2018-04-06T10:03:31.630Z,75008.00
2018-04-06T10:04:30.184Z,79872.00
2018-04-06T10:05:36.907Z,84192.00
2018-04-06T10:06:29.388Z,87456.00
2018-04-06T10:07:30.673Z,86272.00
2018-04-06T10:08:32.408Z,83648.00
2018-04-06T10:09:31.069Z,81632.00
2018-04-06T10:10:31.862Z,83200.00
2018-04-06T10:11:30.356Z,83360.00
2018-04-06T10:12:31.457Z,81344.00
2018-04-06T10:13:33.320Z,80000.00
2018-04-06T10:14:33.357Z,78176.00
2018-04-06T10:15:30.982Z,77312.00
2018-04-06T10:16:31.103Z,77344.00
2018-04-06T10:17:32.905Z,75776.00
2018-04-06T10:18:33.362Z,71456.00
2018-04-06T10:19:31.727Z,71168.00
2018-04-06T10:20:31.964Z,74560.00
2018-04-06T10:21:33.857Z,79296.00
2018-04-06T10:22:32.336Z,82400.00
2018-04-06T10:23:32.574Z,85120.00
2018-04-06T10:24:32.787Z,87552.00
2018-04-06T10:25:36.893Z,86816.00
2018-04-06T10:26:36.906Z,84000.00
2018-04-06T10:27:33.406Z,82528.00
2018-04-06T10:28:34.871Z,82144.00
2018-04-06T10:29:33.667Z,79584.00
2018-04-06T10:30:36.821Z,78176.00
2018-04-06T10:31:35.064Z,79904.00
2018-04-06T10:32:35.326Z,81696.00
2018-04-06T10:33:36.413Z,81312.00
2018-04-06T10:34:38.407Z,81536.00
2018-04-06T10:35:34.825Z,84320.00
2018-04-06T10:36:35.081Z,85472.00
2018-04-06T10:37:35.262Z,84896.00
2018-04-06T10:38:37.359Z,82848.00
2018-04-06T10:39:38.408Z,81184.00
2018-04-06T10:40:35.891Z,77728.00
2018-04-06T10:41:36.121Z,75904.00
2018-04-06T10:42:39.861Z,76864.00
2018-04-06T10:43:36.578Z,82048.00
2018-04-06T10:44:39.320Z,86816.00
2018-04-06T10:45:40.859Z,90816.00
2018-04-06T10:46:41.123Z,93632.00
2018-04-06T10:47:43.895Z,92256.00
2018-04-06T10:48:38.307Z,88160.00
2018-04-06T10:49:37.724Z,84960.00
2018-04-06T10:50:41.868Z,83136.00
2018-04-06T10:51:41.866Z,83648.00
2018-04-06T10:52:39.869Z,85920.00
2018-04-06T10:53:38.593Z,88192.00
2018-04-06T10:54:40.360Z,88864.00
2018-04-06T10:55:54.925Z,89440.00
2018-04-06T10:56:40.865Z,86752.00
2018-04-06T10:57:39.267Z,84416.00
2018-04-06T10:58:41.392Z,81216.00
2018-04-06T10:59:41.362Z,79552.00
2018-04-06T11:00:39.837Z,81408.00
2018-04-06T11:01:42.917Z,85024.00
2018-04-06T11:02:41.863Z,87776.00
2018-04-06T11:03:42.388Z,89952.00
2018-04-06T11:04:40.651Z,90368.00
2018-04-06T11:05:42.361Z,88320.00
2018-04-06T11:06:40.992Z,86752.00
2018-04-06T11:07:42.210Z,85248.00
2018-04-06T11:08:41.423Z,85184.00
2018-04-06T11:09:49.360Z,85056.00
2018-04-06T11:10:49.363Z,85088.00
2018-04-06T11:11:41.982Z,84192.00
2018-04-06T11:12:42.080Z,83168.00
2018-04-06T11:13:43.907Z,82144.00
2018-04-06T11:14:42.488Z,80480.00
2018-04-06T11:15:42.641Z,79616.00
2018-04-06T11:16:44.414Z,79072.00
2018-04-06T11:17:42.906Z,77728.00
2018-04-06T11:18:44.864Z,78400.00
2018-04-06T11:19:45.065Z,78464.00
2018-04-06T11:20:43.564Z,78400.00
2018-04-06T11:21:48.376Z,78688.00
2018-04-06T11:22:46.095Z,77728.00
2018-04-06T11:23:44.186Z,75456.00
2018-04-06T11:24:44.317Z,74752.00
2018-04-06T11:25:44.579Z,75520.00
2018-04-06T11:26:48.366Z,75712.00
2018-04-06T11:27:47.884Z,77120.00
2018-04-06T11:28:48.314Z,78208.00
2018-04-06T11:29:46.872Z,76960.00
2018-04-06T11:30:47.335Z,73568.00
2018-04-06T11:31:47.392Z,70816.00
2018-04-06T11:32:45.865Z,69024.00
2018-04-06T11:33:48.120Z,68320.00
2018-04-06T11:34:46.483Z,67584.00
2018-04-06T11:35:49.320Z,67776.00
2018-04-06T11:36:48.414Z,67296.00
2018-04-06T11:37:47.756Z,67968.00
2018-04-06T11:38:50.375Z,68352.00
2018-04-06T11:39:54.889Z,68640.00
2018-04-06T11:40:47.228Z,68960.00
2018-04-06T11:41:48.323Z,70112.00
2018-04-06T11:42:49.393Z,70176.00
2018-04-06T11:43:52.329Z,68736.00
2018-04-06T11:44:49.816Z,67488.00
2018-04-06T11:45:49.897Z,66816.00
2018-04-06T11:46:50.393Z,64800.00
2018-04-06T11:47:53.349Z,63104.00
2018-04-06T11:48:50.869Z,62848.00
2018-04-06T11:49:50.869Z,63424.00
2018-04-06T11:50:49.343Z,63008.00
2018-04-06T11:51:49.629Z,65440.00
2018-04-06T11:52:57.380Z,67936.00
2018-04-06T11:53:51.868Z,66880.00
2018-04-06T11:54:51.872Z,65792.00
2018-04-06T11:55:50.365Z,65376.00
2018-04-06T11:56:50.488Z,64512.00
2018-04-06T11:57:50.721Z,63360.00
2018-04-06T11:58:52.871Z,64800.00
2018-04-06T11:59:54.916Z,64864.00
2018-04-06T12:00:52.876Z,63712.00
2018-04-06T12:01:51.519Z,62880.00
2018-04-06T12:02:54.398Z,62400.00
2018-04-06T12:03:58.373Z,63264.00
2018-04-06T12:04:53.869Z,63104.00
2018-04-06T12:05:53.123Z,62816.00
2018-04-06T12:06:52.248Z,61952.00
2018-04-06T12:08:08.398Z,60960.00
2018-04-06T12:08:53.761Z,61120.00
2018-04-06T12:09:52.876Z,60768.00
2018-04-06T12:10:54.872Z,60480.00
2018-04-06T12:11:54.879Z,60064.00
2018-04-06T12:13:15.884Z,59360.00
2018-04-06T12:13:55.405Z,58816.00
2018-04-06T12:14:54.755Z,57984.00
2018-04-06T12:15:59.876Z,57664.00
2018-04-06T12:16:55.579Z,58112.00
2018-04-06T12:17:55.881Z,57248.00
2018-04-06T12:18:54.485Z,56896.00
2018-04-06T12:19:55.709Z,56352.00
2018-04-06T12:20:54.928Z,55136.00
2018-04-06T12:21:55.171Z,56384.00
2018-04-06T12:23:01.876Z,57504.00
2018-04-06T12:23:55.470Z,58688.00
2018-04-06T12:24:55.725Z,58560.00
2018-04-06T12:25:57.908Z,58496.00